sensor_id;sensor_type;location;lat;lon;timestamp;P1;durP1;ratioP1;P2;durP2;ratioP2
22965;SDS011;11649;48.090;9.754;2023-07-13T00:00:47;20.05;;;13.10;;
22965;SDS011;11649;48.090;9.754;2023-07-13T00:03:14;18.83;;;12.70;;
22965;SDS011;11649;48.090;9.754;2023-07-13T00:05:41;36.15;;;17.52;;
22965;SDS011;11649;48.090;9.754;2023-07-13T00:08:08;23.27;;;14.65;;
22965;SDS011;11649;48.090;9.754;2023-07-13T00:10:38;19.35;;;12.73;;
22965;SDS011;11649;48.090;9.754;2023-07-13T00:13:06;25.48;;;15.48;;
22965;SDS011;11649;48.090;9.754;2023-07-13T00:15:33;23.67;;;13.45;;
22965;SDS011;11649;48.090;9.754;2023-07-13T00:18:01;27.35;;;16.08;;
22965;SDS011;11649;48.090;9.754;2023-07-13T00:20:28;20.05;;;13.07;;
22965;SDS011;11649;48.090;9.754;2023-07-13T00:22:55;19.98;;;12.57;;
22965;SDS011;11649;48.090;9.754;2023-07-13T00:25:25;19.10;;;11.25;;
22965;SDS011;11649;48.090;9.754;2023-07-13T00:27:54;24.23;;;11.52;;
22965;SDS011;11649;48.090;9.754;2023-07-13T00:30:21;16.35;;;10.98;;
22965;SDS011;11649;48.090;9.754;2023-07-13T00:32:48;17.70;;;9.82;;
22965;SDS011;11649;48.090;9.754;2023-07-13T00:35:26;17.88;;;11.23;;
22965;SDS011;11649;48.090;9.754;2023-07-13T00:37:56;20.75;;;11.10;;
22965;SDS011;11649;48.090;9.754;2023-07-13T00:40:23;16.70;;;10.77;;
22965;SDS011;11649;48.090;9.754;2023-07-13T00:42:51;18.13;;;10.25;;
22965;SDS011;11649;48.090;9.754;2023-07-13T00:47:45;23.17;;;11.45;;
22965;SDS011;11649;48.090;9.754;2023-07-13T00:50:14;17.35;;;11.70;;
22965;SDS011;11649;48.090;9.754;2023-07-13T00:52:44;21.45;;;11.95;;
22965;SDS011;11649;48.090;9.754;2023-07-13T00:55:14;19.17;;;12.13;;
22965;SDS011;11649;48.090;9.754;2023-07-13T00:57:42;16.58;;;10.95;;
22965;SDS011;11649;48.090;9.754;2023-07-13T01:00:10;18.88;;;10.70;;
22965;SDS011;11649;48.090;9.754;2023-07-13T01:02:39;14.07;;;8.93;;
22965;SDS011;11649;48.090;9.754;2023-07-13T01:07:40;17.67;;;10.32;;
22965;SDS011;11649;48.090;9.754;2023-07-13T01:10:10;18.02;;;11.35;;
22965;SDS011;11649;48.090;9.754;2023-07-13T01:12:39;25.42;;;13.77;;
22965;SDS011;11649;48.090;9.754;2023-07-13T01:15:33;26.98;;;15.65;;
22965;SDS011;11649;48.090;9.754;2023-07-13T01:18:01;24.92;;;13.60;;
22965;SDS011;11649;48.090;9.754;2023-07-13T01:20:29;12.45;;;8.75;;
22965;SDS011;11649;48.090;9.754;2023-07-13T01:22:57;15.60;;;8.63;;
22965;SDS011;11649;48.090;9.754;2023-07-13T01:25:26;13.43;;;8.52;;
22965;SDS011;11649;48.090;9.754;2023-07-13T01:27:53;11.10;;;7.60;;
22965;SDS011;11649;48.090;9.754;2023-07-13T01:30:19;10.30;;;6.80;;
22965;SDS011;11649;48.090;9.754;2023-07-13T01:32:46;13.65;;;7.55;;
22965;SDS011;11649;48.090;9.754;2023-07-13T01:35:13;10.38;;;6.78;;
22965;SDS011;11649;48.090;9.754;2023-07-13T01:37:40;13.18;;;7.47;;
22965;SDS011;11649;48.090;9.754;2023-07-13T01:40:07;16.80;;;7.88;;
22965;SDS011;11649;48.090;9.754;2023-07-13T01:42:35;11.93;;;8.10;;
22965;SDS011;11649;48.090;9.754;2023-07-13T01:45:02;10.85;;;8.65;;
22965;SDS011;11649;48.090;9.754;2023-07-13T01:47:30;14.07;;;9.50;;
22965;SDS011;11649;48.090;9.754;2023-07-13T01:49:57;21.65;;;10.52;;
22965;SDS011;11649;48.090;9.754;2023-07-13T01:52:24;23.15;;;12.25;;
22965;SDS011;11649;48.090;9.754;2023-07-13T01:54:51;22.40;;;11.95;;
22965;SDS011;11649;48.090;9.754;2023-07-13T01:57:19;20.85;;;12.27;;
22965;SDS011;11649;48.090;9.754;2023-07-13T01:59:46;16.23;;;11.02;;
22965;SDS011;11649;48.090;9.754;2023-07-13T02:02:12;17.42;;;9.43;;
22965;SDS011;11649;48.090;9.754;2023-07-13T02:04:40;17.48;;;10.23;;
22965;SDS011;11649;48.090;9.754;2023-07-13T02:07:07;15.27;;;10.63;;
22965;SDS011;11649;48.090;9.754;2023-07-13T02:09:35;16.70;;;10.82;;
22965;SDS011;11649;48.090;9.754;2023-07-13T02:12:02;21.77;;;10.95;;
22965;SDS011;11649;48.090;9.754;2023-07-13T02:14:29;23.00;;;11.65;;
22965;SDS011;11649;48.090;9.754;2023-07-13T02:16:56;22.38;;;12.20;;
22965;SDS011;11649;48.090;9.754;2023-07-13T02:19:23;20.52;;;12.63;;
22965;SDS011;11649;48.090;9.754;2023-07-13T02:21:50;17.38;;;11.02;;
22965;SDS011;11649;48.090;9.754;2023-07-13T02:24:16;19.35;;;10.50;;
22965;SDS011;11649;48.090;9.754;2023-07-13T02:26:45;33.72;;;12.13;;
22965;SDS011;11649;48.090;9.754;2023-07-13T02:29:12;35.05;;;12.18;;
22965;SDS011;11649;48.090;9.754;2023-07-13T02:31:39;39.38;;;12.73;;
22965;SDS011;11649;48.090;9.754;2023-07-13T02:34:06;43.13;;;11.80;;
22965;SDS011;11649;48.090;9.754;2023-07-13T02:36:33;33.50;;;11.07;;
22965;SDS011;11649;48.090;9.754;2023-07-13T02:39:00;40.28;;;11.35;;
22965;SDS011;11649;48.090;9.754;2023-07-13T02:41:29;29.67;;;10.93;;
22965;SDS011;11649;48.090;9.754;2023-07-13T02:43:57;22.15;;;10.38;;
22965;SDS011;11649;48.090;9.754;2023-07-13T02:46:32;25.98;;;11.70;;
22965;SDS011;11649;48.090;9.754;2023-07-13T02:49:00;21.55;;;10.88;;
22965;SDS011;11649;48.090;9.754;2023-07-13T02:51:27;25.55;;;10.90;;
22965;SDS011;11649;48.090;9.754;2023-07-13T02:53:54;18.95;;;10.85;;
22965;SDS011;11649;48.090;9.754;2023-07-13T02:56:22;17.45;;;10.90;;
22965;SDS011;11649;48.090;9.754;2023-07-13T02:58:50;20.13;;;10.52;;
22965;SDS011;11649;48.090;9.754;2023-07-13T03:01:18;24.33;;;9.88;;
22965;SDS011;11649;48.090;9.754;2023-07-13T03:03:45;16.52;;;9.43;;
22965;SDS011;11649;48.090;9.754;2023-07-13T03:06:12;20.52;;;10.05;;
22965;SDS011;11649;48.090;9.754;2023-07-13T03:08:40;21.85;;;10.88;;
22965;SDS011;11649;48.090;9.754;2023-07-13T03:11:08;21.50;;;10.55;;
22965;SDS011;11649;48.090;9.754;2023-07-13T03:13:37;25.70;;;11.57;;
22965;SDS011;11649;48.090;9.754;2023-07-13T03:16:04;19.58;;;10.25;;
22965;SDS011;11649;48.090;9.754;2023-07-13T03:18:32;20.73;;;11.43;;
22965;SDS011;11649;48.090;9.754;2023-07-13T03:20:59;22.17;;;11.75;;
22965;SDS011;11649;48.090;9.754;2023-07-13T03:23:26;25.40;;;12.38;;
22965;SDS011;11649;48.090;9.754;2023-07-13T03:28:30;23.58;;;11.73;;
22965;SDS011;11649;48.090;9.754;2023-07-13T03:31:01;19.95;;;11.27;;
22965;SDS011;11649;48.090;9.754;2023-07-13T03:33:33;16.58;;;10.32;;
22965;SDS011;11649;48.090;9.754;2023-07-13T03:36:00;22.67;;;11.60;;
22965;SDS011;11649;48.090;9.754;2023-07-13T03:38:27;25.00;;;11.77;;
22965;SDS011;11649;48.090;9.754;2023-07-13T03:40:54;19.25;;;10.93;;
22965;SDS011;11649;48.090;9.754;2023-07-13T03:43:21;21.77;;;11.77;;
22965;SDS011;11649;48.090;9.754;2023-07-13T03:45:48;20.92;;;12.45;;
22965;SDS011;11649;48.090;9.754;2023-07-13T03:48:15;21.33;;;12.02;;
22965;SDS011;11649;48.090;9.754;2023-07-13T03:50:42;16.73;;;10.07;;
22965;SDS011;11649;48.090;9.754;2023-07-13T03:53:09;22.75;;;11.00;;
22965;SDS011;11649;48.090;9.754;2023-07-13T03:55:35;15.80;;;9.57;;
22965;SDS011;11649;48.090;9.754;2023-07-13T04:00:58;21.42;;;10.85;;
22965;SDS011;11649;48.090;9.754;2023-07-13T04:03:26;20.73;;;10.50;;
22965;SDS011;11649;48.090;9.754;2023-07-13T04:05:55;20.48;;;10.65;;
22965;SDS011;11649;48.090;9.754;2023-07-13T04:08:26;17.63;;;11.25;;
22965;SDS011;11649;48.090;9.754;2023-07-13T04:10:54;22.05;;;10.35;;
22965;SDS011;11649;48.090;9.754;2023-07-13T04:13:22;19.23;;;10.30;;
22965;SDS011;11649;48.090;9.754;2023-07-13T04:15:49;20.92;;;10.90;;
22965;SDS011;11649;48.090;9.754;2023-07-13T04:18:17;16.40;;;10.35;;
22965;SDS011;11649;48.090;9.754;2023-07-13T04:20:49;14.57;;;9.95;;
22965;SDS011;11649;48.090;9.754;2023-07-13T04:23:17;19.20;;;9.82;;
22965;SDS011;11649;48.090;9.754;2023-07-13T04:25:44;18.08;;;9.70;;
22965;SDS011;11649;48.090;9.754;2023-07-13T04:28:20;20.88;;;9.95;;
22965;SDS011;11649;48.090;9.754;2023-07-13T04:30:48;16.13;;;9.43;;
22965;SDS011;11649;48.090;9.754;2023-07-13T04:33:15;13.43;;;9.07;;
22965;SDS011;11649;48.090;9.754;2023-07-13T04:35:49;12.43;;;7.82;;
22965;SDS011;11649;48.090;9.754;2023-07-13T04:38:20;12.55;;;7.28;;
22965;SDS011;11649;48.090;9.754;2023-07-13T04:40:48;12.18;;;6.70;;
22965;SDS011;11649;48.090;9.754;2023-07-13T04:43:15;10.45;;;6.63;;
22965;SDS011;11649;48.090;9.754;2023-07-13T04:45:42;13.45;;;6.72;;
22965;SDS011;11649;48.090;9.754;2023-07-13T04:48:09;14.10;;;6.43;;
22965;SDS011;11649;48.090;9.754;2023-07-13T04:50:36;10.50;;;5.25;;
22965;SDS011;11649;48.090;9.754;2023-07-13T04:53:03;15.48;;;5.90;;
22965;SDS011;11649;48.090;9.754;2023-07-13T04:55:30;9.30;;;4.90;;
22965;SDS011;11649;48.090;9.754;2023-07-13T04:57:57;9.77;;;5.38;;
22965;SDS011;11649;48.090;9.754;2023-07-13T05:00:29;8.55;;;5.10;;
22965;SDS011;11649;48.090;9.754;2023-07-13T05:02:56;14.35;;;5.40;;
22965;SDS011;11649;48.090;9.754;2023-07-13T05:05:24;8.48;;;4.63;;
22965;SDS011;11649;48.090;9.754;2023-07-13T05:07:53;7.95;;;4.68;;
22965;SDS011;11649;48.090;9.754;2023-07-13T05:10:20;10.13;;;4.10;;
22965;SDS011;11649;48.090;9.754;2023-07-13T05:12:47;9.50;;;4.70;;
22965;SDS011;11649;48.090;9.754;2023-07-13T05:15:14;9.15;;;3.97;;
22965;SDS011;11649;48.090;9.754;2023-07-13T05:17:41;10.45;;;4.30;;
22965;SDS011;11649;48.090;9.754;2023-07-13T05:20:08;10.57;;;4.28;;
22965;SDS011;11649;48.090;9.754;2023-07-13T05:22:36;13.43;;;4.07;;
22965;SDS011;11649;48.090;9.754;2023-07-13T05:25:06;9.73;;;4.55;;
22965;SDS011;11649;48.090;9.754;2023-07-13T05:27:34;10.27;;;5.07;;
22965;SDS011;11649;48.090;9.754;2023-07-13T05:30:02;6.50;;;4.72;;
22965;SDS011;11649;48.090;9.754;2023-07-13T05:32:29;10.70;;;4.60;;
22965;SDS011;11649;48.090;9.754;2023-07-13T05:34:56;7.80;;;4.70;;
22965;SDS011;11649;48.090;9.754;2023-07-13T05:37:23;9.30;;;4.72;;
22965;SDS011;11649;48.090;9.754;2023-07-13T05:39:50;10.70;;;5.00;;
22965;SDS011;11649;48.090;9.754;2023-07-13T05:42:16;6.05;;;3.80;;
22965;SDS011;11649;48.090;9.754;2023-07-13T05:44:43;8.70;;;4.00;;
22965;SDS011;11649;48.090;9.754;2023-07-13T05:47:10;7.57;;;3.85;;
22965;SDS011;11649;48.090;9.754;2023-07-13T05:49:37;12.80;;;4.15;;
22965;SDS011;11649;48.090;9.754;2023-07-13T05:52:04;6.97;;;3.67;;
22965;SDS011;11649;48.090;9.754;2023-07-13T05:54:31;10.43;;;3.80;;
22965;SDS011;11649;48.090;9.754;2023-07-13T05:56:58;8.00;;;3.15;;
22965;SDS011;11649;48.090;9.754;2023-07-13T05:59:25;14.05;;;2.92;;
22965;SDS011;11649;48.090;9.754;2023-07-13T06:01:51;10.07;;;2.92;;
22965;SDS011;11649;48.090;9.754;2023-07-13T06:04:19;6.97;;;2.85;;
22965;SDS011;11649;48.090;9.754;2023-07-13T06:06:46;4.03;;;2.15;;
22965;SDS011;11649;48.090;9.754;2023-07-13T06:09:13;9.98;;;2.60;;
22965;SDS011;11649;48.090;9.754;2023-07-13T06:11:40;6.55;;;2.15;;
22965;SDS011;11649;48.090;9.754;2023-07-13T06:14:07;7.38;;;2.20;;
22965;SDS011;11649;48.090;9.754;2023-07-13T06:16:34;3.25;;;1.88;;
22965;SDS011;11649;48.090;9.754;2023-07-13T06:19:01;4.40;;;2.30;;
22965;SDS011;11649;48.090;9.754;2023-07-13T06:21:28;5.00;;;1.92;;
22965;SDS011;11649;48.090;9.754;2023-07-13T06:23:55;6.93;;;2.33;;
22965;SDS011;11649;48.090;9.754;2023-07-13T06:26:23;3.70;;;1.90;;
22965;SDS011;11649;48.090;9.754;2023-07-13T06:28:50;5.88;;;1.98;;
22965;SDS011;11649;48.090;9.754;2023-07-13T06:31:17;3.50;;;1.90;;
22965;SDS011;11649;48.090;9.754;2023-07-13T06:33:44;5.40;;;2.00;;
22965;SDS011;11649;48.090;9.754;2023-07-13T06:36:11;3.88;;;1.95;;
22965;SDS011;11649;48.090;9.754;2023-07-13T06:38:38;3.47;;;1.77;;
22965;SDS011;11649;48.090;9.754;2023-07-13T06:41:06;2.67;;;1.92;;
22965;SDS011;11649;48.090;9.754;2023-07-13T06:43:34;3.10;;;2.10;;
22965;SDS011;11649;48.090;9.754;2023-07-13T06:46:01;2.75;;;1.73;;
22965;SDS011;11649;48.090;9.754;2023-07-13T06:48:28;2.70;;;1.52;;
22965;SDS011;11649;48.090;9.754;2023-07-13T06:50:55;8.23;;;1.77;;
22965;SDS011;11649;48.090;9.754;2023-07-13T06:53:22;7.22;;;1.60;;
22965;SDS011;11649;48.090;9.754;2023-07-13T06:55:49;3.50;;;1.65;;
22965;SDS011;11649;48.090;9.754;2023-07-13T06:58:17;3.45;;;2.00;;
22965;SDS011;11649;48.090;9.754;2023-07-13T07:00:45;5.72;;;1.70;;
22965;SDS011;11649;48.090;9.754;2023-07-13T07:03:12;3.63;;;1.95;;
22965;SDS011;11649;48.090;9.754;2023-07-13T07:05:40;5.60;;;2.42;;
22965;SDS011;11649;48.090;9.754;2023-07-13T07:08:06;4.60;;;2.00;;
22965;SDS011;11649;48.090;9.754;2023-07-13T07:10:34;7.90;;;2.10;;
22965;SDS011;11649;48.090;9.754;2023-07-13T07:13:01;4.20;;;2.00;;
22965;SDS011;11649;48.090;9.754;2023-07-13T07:15:28;3.63;;;1.80;;
22965;SDS011;11649;48.090;9.754;2023-07-13T07:17:55;2.40;;;1.73;;
22965;SDS011;11649;48.090;9.754;2023-07-13T07:20:22;4.47;;;1.83;;
22965;SDS011;11649;48.090;9.754;2023-07-13T07:22:49;3.22;;;1.73;;
22965;SDS011;11649;48.090;9.754;2023-07-13T07:25:16;4.10;;;1.90;;
22965;SDS011;11649;48.090;9.754;2023-07-13T07:27:43;3.33;;;2.25;;
22965;SDS011;11649;48.090;9.754;2023-07-13T07:30:12;4.13;;;1.90;;
22965;SDS011;11649;48.090;9.754;2023-07-13T07:32:42;5.35;;;1.85;;
22965;SDS011;11649;48.090;9.754;2023-07-13T07:35:12;6.95;;;1.95;;
22965;SDS011;11649;48.090;9.754;2023-07-13T07:37:39;4.75;;;2.05;;
22965;SDS011;11649;48.090;9.754;2023-07-13T07:40:08;4.72;;;1.98;;
22965;SDS011;11649;48.090;9.754;2023-07-13T07:42:38;7.28;;;2.22;;
22965;SDS011;11649;48.090;9.754;2023-07-13T07:45:05;3.97;;;1.88;;
22965;SDS011;11649;48.090;9.754;2023-07-13T07:47:32;4.65;;;1.80;;
22965;SDS011;11649;48.090;9.754;2023-07-13T07:49:59;3.35;;;1.90;;
22965;SDS011;11649;48.090;9.754;2023-07-13T07:52:26;4.00;;;1.63;;
22965;SDS011;11649;48.090;9.754;2023-07-13T07:54:53;6.32;;;1.70;;
22965;SDS011;11649;48.090;9.754;2023-07-13T07:57:23;2.67;;;1.60;;
22965;SDS011;11649;48.090;9.754;2023-07-13T07:59:52;8.05;;;1.92;;
22965;SDS011;11649;48.090;9.754;2023-07-13T08:02:22;5.40;;;1.77;;
22965;SDS011;11649;48.090;9.754;2023-07-13T08:04:53;4.47;;;1.90;;
22965;SDS011;11649;48.090;9.754;2023-07-13T08:07:23;3.63;;;1.58;;
22965;SDS011;11649;48.090;9.754;2023-07-13T08:09:52;3.00;;;1.80;;
22965;SDS011;11649;48.090;9.754;2023-07-13T08:12:19;3.75;;;1.70;;
22965;SDS011;11649;48.090;9.754;2023-07-13T08:15:06;5.47;;;2.05;;
22965;SDS011;11649;48.090;9.754;2023-07-13T08:17:38;2.72;;;1.60;;
22965;SDS011;11649;48.090;9.754;2023-07-13T08:20:05;7.03;;;1.67;;
22965;SDS011;11649;48.090;9.754;2023-07-13T08:22:32;6.45;;;1.70;;
22965;SDS011;11649;48.090;9.754;2023-07-13T08:24:59;3.58;;;1.90;;
22965;SDS011;11649;48.090;9.754;2023-07-13T08:27:27;4.40;;;1.55;;
22965;SDS011;11649;48.090;9.754;2023-07-13T08:29:54;3.97;;;1.60;;
22965;SDS011;11649;48.090;9.754;2023-07-13T08:32:22;3.33;;;1.58;;
22965;SDS011;11649;48.090;9.754;2023-07-13T08:34:49;5.57;;;1.92;;
22965;SDS011;11649;48.090;9.754;2023-07-13T08:37:17;2.83;;;1.60;;
22965;SDS011;11649;48.090;9.754;2023-07-13T08:39:44;4.50;;;1.83;;
22965;SDS011;11649;48.090;9.754;2023-07-13T08:47:39;6.00;;;1.80;;
22965;SDS011;11649;48.090;9.754;2023-07-13T08:50:12;9.90;;;1.60;;
22965;SDS011;11649;48.090;9.754;2023-07-13T08:52:43;5.65;;;1.67;;
22965;SDS011;11649;48.090;9.754;2023-07-13T08:55:18;10.73;;;1.90;;
22965;SDS011;11649;48.090;9.754;2023-07-13T08:57:53;4.20;;;1.65;;
22965;SDS011;11649;48.090;9.754;2023-07-13T09:00:56;3.22;;;1.63;;
22965;SDS011;11649;48.090;9.754;2023-07-13T09:03:38;4.03;;;1.60;;
22965;SDS011;11649;48.090;9.754;2023-07-13T09:06:12;3.03;;;1.48;;
22965;SDS011;11649;48.090;9.754;2023-07-13T09:08:48;4.07;;;1.50;;
22965;SDS011;11649;48.090;9.754;2023-07-13T09:11:33;6.70;;;2.03;;
22965;SDS011;11649;48.090;9.754;2023-07-13T09:16:50;4.07;;;1.60;;
22965;SDS011;11649;48.090;9.754;2023-07-13T09:19:28;3.63;;;1.63;;
22965;SDS011;11649;48.090;9.754;2023-07-13T09:21:59;3.58;;;1.77;;
22965;SDS011;11649;48.090;9.754;2023-07-13T09:24:29;5.38;;;1.55;;
22965;SDS011;11649;48.090;9.754;2023-07-13T09:27:09;3.35;;;1.60;;
22965;SDS011;11649;48.090;9.754;2023-07-13T09:32:42;4.63;;;1.52;;
22965;SDS011;11649;48.090;9.754;2023-07-13T09:35:15;4.32;;;1.75;;
22965;SDS011;11649;48.090;9.754;2023-07-13T09:37:45;3.65;;;1.90;;
22965;SDS011;11649;48.090;9.754;2023-07-13T09:40:24;5.07;;;2.00;;
22965;SDS011;11649;48.090;9.754;2023-07-13T09:42:56;4.47;;;1.75;;
22965;SDS011;11649;48.090;9.754;2023-07-13T09:45:29;7.28;;;1.95;;
22965;SDS011;11649;48.090;9.754;2023-07-13T09:48:03;4.55;;;1.73;;
22965;SDS011;11649;48.090;9.754;2023-07-13T09:50:40;3.78;;;1.60;;
22965;SDS011;11649;48.090;9.754;2023-07-13T09:53:14;3.63;;;1.40;;
22965;SDS011;11649;48.090;9.754;2023-07-13T09:55:45;3.92;;;1.30;;
22965;SDS011;11649;48.090;9.754;2023-07-13T09:58:19;4.22;;;1.48;;
22965;SDS011;11649;48.090;9.754;2023-07-13T10:00:54;6.15;;;1.50;;
22965;SDS011;11649;48.090;9.754;2023-07-13T10:03:26;3.72;;;1.67;;
22965;SDS011;11649;48.090;9.754;2023-07-13T10:05:54;3.55;;;1.60;;
22965;SDS011;11649;48.090;9.754;2023-07-13T10:08:31;6.82;;;1.92;;
22965;SDS011;11649;48.090;9.754;2023-07-13T10:11:08;4.53;;;1.70;;
22965;SDS011;11649;48.090;9.754;2023-07-13T10:13:40;4.03;;;1.70;;
22965;SDS011;11649;48.090;9.754;2023-07-13T10:16:09;3.42;;;1.42;;
22965;SDS011;11649;48.090;9.754;2023-07-13T10:18:43;5.07;;;1.73;;
22965;SDS011;11649;48.090;9.754;2023-07-13T10:21:39;2.50;;;1.70;;
22965;SDS011;11649;48.090;9.754;2023-07-13T10:24:19;5.13;;;2.00;;
22965;SDS011;11649;48.090;9.754;2023-07-13T10:26:52;6.68;;;1.70;;
22965;SDS011;11649;48.090;9.754;2023-07-13T10:29:33;6.60;;;1.70;;
22965;SDS011;11649;48.090;9.754;2023-07-13T10:32:07;7.07;;;1.67;;
22965;SDS011;11649;48.090;9.754;2023-07-13T10:34:37;3.63;;;1.40;;
22965;SDS011;11649;48.090;9.754;2023-07-13T10:37:06;3.60;;;1.60;;
22965;SDS011;11649;48.090;9.754;2023-07-13T10:39:41;4.07;;;1.60;;
22965;SDS011;11649;48.090;9.754;2023-07-13T10:42:08;3.92;;;1.80;;
22965;SDS011;11649;48.090;9.754;2023-07-13T10:44:41;2.40;;;1.40;;
22965;SDS011;11649;48.090;9.754;2023-07-13T10:47:13;3.17;;;1.45;;
22965;SDS011;11649;48.090;9.754;2023-07-13T10:49:42;3.85;;;1.40;;
22965;SDS011;11649;48.090;9.754;2023-07-13T10:52:37;6.90;;;1.50;;
22965;SDS011;11649;48.090;9.754;2023-07-13T10:58:11;3.50;;;1.50;;
22965;SDS011;11649;48.090;9.754;2023-07-13T11:00:44;3.20;;;1.55;;
22965;SDS011;11649;48.090;9.754;2023-07-13T11:03:20;3.85;;;1.30;;
22965;SDS011;11649;48.090;9.754;2023-07-13T11:05:49;3.28;;;1.50;;
22965;SDS011;11649;48.090;9.754;2023-07-13T11:10:51;3.13;;;1.40;;
22965;SDS011;11649;48.090;9.754;2023-07-13T11:13:37;3.22;;;1.50;;
22965;SDS011;11649;48.090;9.754;2023-07-13T11:18:51;4.13;;;1.42;;
22965;SDS011;11649;48.090;9.754;2023-07-13T11:21:34;3.47;;;1.23;;
22965;SDS011;11649;48.090;9.754;2023-07-13T11:24:21;9.90;;;1.90;;
22965;SDS011;11649;48.090;9.754;2023-07-13T11:31:55;4.82;;;1.77;;
22965;SDS011;11649;48.090;9.754;2023-07-13T11:36:55;8.02;;;1.80;;
22965;SDS011;11649;48.090;9.754;2023-07-13T11:39:29;6.00;;;1.90;;
22965;SDS011;11649;48.090;9.754;2023-07-13T11:42:00;9.90;;;2.13;;
22965;SDS011;11649;48.090;9.754;2023-07-13T11:44:30;9.05;;;2.08;;
22965;SDS011;11649;48.090;9.754;2023-07-13T11:46:59;9.80;;;2.00;;
22965;SDS011;11649;48.090;9.754;2023-07-13T11:49:48;7.45;;;1.90;;
22965;SDS011;11649;48.090;9.754;2023-07-13T11:52:17;10.57;;;2.10;;
22965;SDS011;11649;48.090;9.754;2023-07-13T12:00:13;9.15;;;2.25;;
22965;SDS011;11649;48.090;9.754;2023-07-13T12:02:43;6.72;;;2.13;;
22965;SDS011;11649;48.090;9.754;2023-07-13T12:05:12;9.25;;;2.30;;
22965;SDS011;11649;48.090;9.754;2023-07-13T12:07:41;9.63;;;2.22;;
22965;SDS011;11649;48.090;9.754;2023-07-13T12:12:36;4.63;;;1.90;;
22965;SDS011;11649;48.090;9.754;2023-07-13T12:15:07;7.97;;;2.03;;
22965;SDS011;11649;48.090;9.754;2023-07-13T12:17:34;6.05;;;1.80;;
22965;SDS011;11649;48.090;9.754;2023-07-13T12:20:03;10.30;;;2.00;;
22965;SDS011;11649;48.090;9.754;2023-07-13T12:23:11;8.85;;;2.22;;
22965;SDS011;11649;48.090;9.754;2023-07-13T12:26:02;11.20;;;2.20;;
22965;SDS011;11649;48.090;9.754;2023-07-13T12:30:59;6.40;;;1.63;;
22965;SDS011;11649;48.090;9.754;2023-07-13T12:33:28;7.40;;;3.67;;
22965;SDS011;11649;48.090;9.754;2023-07-13T12:36:02;6.05;;;2.00;;
22965;SDS011;11649;48.090;9.754;2023-07-13T12:38:32;5.30;;;1.60;;
22965;SDS011;11649;48.090;9.754;2023-07-13T12:40:59;5.03;;;1.33;;
22965;SDS011;11649;48.090;9.754;2023-07-13T12:43:31;5.60;;;1.80;;
22965;SDS011;11649;48.090;9.754;2023-07-13T12:46:19;8.38;;;1.88;;
22965;SDS011;11649;48.090;9.754;2023-07-13T12:48:53;6.63;;;1.70;;
22965;SDS011;11649;48.090;9.754;2023-07-13T12:51:40;4.22;;;1.73;;
22965;SDS011;11649;48.090;9.754;2023-07-13T12:54:15;7.38;;;1.63;;
22965;SDS011;11649;48.090;9.754;2023-07-13T12:56:44;3.85;;;1.67;;
22965;SDS011;11649;48.090;9.754;2023-07-13T12:59:20;4.57;;;1.65;;
22965;SDS011;11649;48.090;9.754;2023-07-13T13:01:49;5.43;;;1.73;;
22965;SDS011;11649;48.090;9.754;2023-07-13T13:04:17;7.28;;;1.50;;
22965;SDS011;11649;48.090;9.754;2023-07-13T13:06:48;5.68;;;1.65;;
22965;SDS011;11649;48.090;9.754;2023-07-13T13:09:26;5.43;;;1.70;;
22965;SDS011;11649;48.090;9.754;2023-07-13T13:11:53;4.32;;;1.48;;
22965;SDS011;11649;48.090;9.754;2023-07-13T13:14:20;6.57;;;1.70;;
22965;SDS011;11649;48.090;9.754;2023-07-13T13:16:47;4.72;;;1.70;;
22965;SDS011;11649;48.090;9.754;2023-07-13T13:19:17;4.68;;;1.60;;
22965;SDS011;11649;48.090;9.754;2023-07-13T13:21:48;3.97;;;1.80;;
22965;SDS011;11649;48.090;9.754;2023-07-13T13:24:20;4.63;;;1.60;;
22965;SDS011;11649;48.090;9.754;2023-07-13T13:26:48;5.00;;;1.90;;
22965;SDS011;11649;48.090;9.754;2023-07-13T13:29:21;3.72;;;1.60;;
22965;SDS011;11649;48.090;9.754;2023-07-13T13:31:53;6.00;;;2.10;;
22965;SDS011;11649;48.090;9.754;2023-07-13T13:34:22;6.53;;;1.60;;
22965;SDS011;11649;48.090;9.754;2023-07-13T13:36:53;5.93;;;2.20;;
22965;SDS011;11649;48.090;9.754;2023-07-13T13:39:43;6.68;;;1.92;;
22965;SDS011;11649;48.090;9.754;2023-07-13T13:42:28;5.60;;;1.30;;
22965;SDS011;11649;48.090;9.754;2023-07-13T13:44:55;7.05;;;1.60;;
22965;SDS011;11649;48.090;9.754;2023-07-13T13:47:28;5.47;;;1.30;;
22965;SDS011;11649;48.090;9.754;2023-07-13T13:49:57;3.15;;;1.60;;
22965;SDS011;11649;48.090;9.754;2023-07-13T13:52:24;3.58;;;1.40;;
22965;SDS011;11649;48.090;9.754;2023-07-13T13:54:51;3.17;;;1.60;;
22965;SDS011;11649;48.090;9.754;2023-07-13T13:57:23;4.47;;;1.70;;
22965;SDS011;11649;48.090;9.754;2023-07-13T13:59:51;4.15;;;1.80;;
22965;SDS011;11649;48.090;9.754;2023-07-13T14:02:23;3.80;;;2.15;;
22965;SDS011;11649;48.090;9.754;2023-07-13T14:04:56;5.38;;;1.70;;
22965;SDS011;11649;48.090;9.754;2023-07-13T14:07:25;5.28;;;1.70;;
22965;SDS011;11649;48.090;9.754;2023-07-13T14:09:55;4.03;;;1.50;;
22965;SDS011;11649;48.090;9.754;2023-07-13T14:12:24;8.63;;;1.55;;
22965;SDS011;11649;48.090;9.754;2023-07-13T14:14:55;5.18;;;1.40;;
22965;SDS011;11649;48.090;9.754;2023-07-13T14:17:25;4.50;;;1.52;;
22965;SDS011;11649;48.090;9.754;2023-07-13T14:19:54;3.97;;;1.60;;
22965;SDS011;11649;48.090;9.754;2023-07-13T14:22:24;3.83;;;1.50;;
22965;SDS011;11649;48.090;9.754;2023-07-13T14:24:55;4.03;;;1.63;;
22965;SDS011;11649;48.090;9.754;2023-07-13T14:27:24;3.58;;;1.70;;
22965;SDS011;11649;48.090;9.754;2023-07-13T14:29:51;4.97;;;1.80;;
22965;SDS011;11649;48.090;9.754;2023-07-13T14:32:18;4.05;;;1.52;;
22965;SDS011;11649;48.090;9.754;2023-07-13T14:34:44;4.78;;;1.60;;
22965;SDS011;11649;48.090;9.754;2023-07-13T14:37:12;5.95;;;1.70;;
22965;SDS011;11649;48.090;9.754;2023-07-13T14:39:41;2.90;;;1.50;;
22965;SDS011;11649;48.090;9.754;2023-07-13T14:42:10;6.70;;;1.70;;
22965;SDS011;11649;48.090;9.754;2023-07-13T14:44:37;4.00;;;1.65;;
22965;SDS011;11649;48.090;9.754;2023-07-13T14:47:05;4.10;;;1.70;;
22965;SDS011;11649;48.090;9.754;2023-07-13T14:49:34;4.32;;;1.60;;
22965;SDS011;11649;48.090;9.754;2023-07-13T14:52:14;4.47;;;1.67;;
22965;SDS011;11649;48.090;9.754;2023-07-13T14:54:46;3.05;;;1.50;;
22965;SDS011;11649;48.090;9.754;2023-07-13T14:57:14;3.58;;;1.65;;
22965;SDS011;11649;48.090;9.754;2023-07-13T14:59:43;6.10;;;2.05;;
22965;SDS011;11649;48.090;9.754;2023-07-13T15:02:17;4.20;;;1.70;;
22965;SDS011;11649;48.090;9.754;2023-07-13T15:04:52;5.55;;;1.52;;
22965;SDS011;11649;48.090;9.754;2023-07-13T15:07:19;3.40;;;1.55;;
22965;SDS011;11649;48.090;9.754;2023-07-13T15:09:47;2.97;;;1.48;;
22965;SDS011;11649;48.090;9.754;2023-07-13T15:12:14;7.32;;;2.00;;
22965;SDS011;11649;48.090;9.754;2023-07-13T15:14:41;4.85;;;1.90;;
22965;SDS011;11649;48.090;9.754;2023-07-13T15:17:41;5.38;;;1.73;;
22965;SDS011;11649;48.090;9.754;2023-07-13T15:20:39;1.90;;;1.27;;
22965;SDS011;11649;48.090;9.754;2023-07-13T15:23:02;2.70;;;1.70;;
22965;SDS011;11649;48.090;9.754;2023-07-13T15:25:30;2.80;;;1.63;;
22965;SDS011;11649;48.090;9.754;2023-07-13T15:27:59;4.75;;;1.63;;
22965;SDS011;11649;48.090;9.754;2023-07-13T15:30:28;3.80;;;1.52;;
22965;SDS011;11649;48.090;9.754;2023-07-13T15:32:58;3.08;;;1.60;;
22965;SDS011;11649;48.090;9.754;2023-07-13T15:35:32;5.15;;;1.60;;
22965;SDS011;11649;48.090;9.754;2023-07-13T15:37:59;3.40;;;1.45;;
22965;SDS011;11649;48.090;9.754;2023-07-13T15:40:26;4.10;;;1.80;;
22965;SDS011;11649;48.090;9.754;2023-07-13T15:42:53;5.03;;;1.85;;
22965;SDS011;11649;48.090;9.754;2023-07-13T15:45:20;5.85;;;1.85;;